createdAt,value
2023-03-08T00:02:11.349Z,98952.58
2023-03-08T00:04:40.994Z,98955.51
2023-03-08T00:07:12.557Z,98963.04
2023-03-08T00:09:42.130Z,98960.45
2023-03-08T00:12:13.273Z,98960.30
2023-03-08T00:14:42.940Z,98958.52
2023-03-08T00:17:13.316Z,98960.27
2023-03-08T00:19:43.061Z,98957.23
2023-03-08T00:22:13.544Z,98958.64
2023-03-08T00:24:43.091Z,98954.14
2023-03-08T00:27:13.427Z,98951.83
2023-03-08T00:29:43.540Z,98958.56
2023-03-08T00:32:13.177Z,98955.59
2023-03-08T00:34:47.234Z,98966.44
2023-03-08T00:37:17.354Z,98965.16
2023-03-08T00:39:52.228Z,98971.25
2023-03-08T00:42:23.130Z,98971.39
2023-03-08T00:44:53.799Z,98971.38
2023-03-08T00:47:24.414Z,98972.57
2023-03-08T00:49:54.000Z,98967.52
2023-03-08T00:52:24.577Z,98965.95
2023-03-08T00:54:54.621Z,98963.00
2023-03-08T00:57:24.286Z,98966.08
2023-03-08T00:59:55.219Z,98964.95
2023-03-08T01:02:24.908Z,98965.77
2023-03-08T01:04:54.873Z,98970.88
2023-03-08T01:07:26.025Z,98970.75
2023-03-08T01:09:57.332Z,98970.44
2023-03-08T01:12:26.944Z,98968.19
2023-03-08T01:14:58.608Z,98972.54
2023-03-08T01:17:29.136Z,98970.88
2023-03-08T01:19:58.819Z,98970.27
2023-03-08T01:22:28.379Z,98971.95
2023-03-08T01:24:59.091Z,98972.46
2023-03-08T01:27:30.708Z,98974.64
2023-03-08T01:30:03.622Z,98976.39
2023-03-08T01:32:33.352Z,98973.23
2023-03-08T01:35:05.397Z,98976.01
2023-03-08T01:37:35.253Z,98971.90
2023-03-08T01:40:07.234Z,98972.09
2023-03-08T01:42:39.896Z,98972.02
2023-03-08T01:45:41.400Z,98974.06
2023-03-08T01:48:12.356Z,98981.52
2023-03-08T01:51:03.107Z,98987.09
2023-03-08T01:53:35.090Z,98989.25
2023-03-08T01:56:07.210Z,98986.74
2023-03-08T01:58:38.582Z,98990.62
2023-03-08T02:01:09.182Z,98992.77
2023-03-08T02:03:38.959Z,98991.40
2023-03-08T02:06:10.453Z,98991.47
2023-03-08T02:08:40.627Z,98995.48
2023-03-08T02:11:12.266Z,99000.20
2023-03-08T02:13:43.517Z,99004.99
2023-03-08T02:16:16.604Z,99004.33
2023-03-08T02:18:55.601Z,99007.23
2023-03-08T02:21:25.877Z,99009.75
2023-03-08T02:23:56.252Z,99008.29
2023-03-08T02:26:26.287Z,99008.79
2023-03-08T02:28:56.534Z,99009.52
2023-03-08T02:31:26.749Z,99012.02
2023-03-08T02:33:57.363Z,99016.63
2023-03-08T02:36:29.635Z,99021.43
2023-03-08T02:38:59.209Z,99023.52
2023-03-08T02:41:31.658Z,99022.30
2023-03-08T02:44:01.263Z,99025.66
2023-03-08T02:46:30.950Z,99031.58
2023-03-08T02:49:02.203Z,99029.34
2023-03-08T02:51:31.797Z,99035.14
2023-03-08T02:54:01.390Z,99036.45
2023-03-08T02:56:32.354Z,99038.96
2023-03-08T02:59:01.958Z,99039.55
2023-03-08T03:01:33.455Z,99038.58
2023-03-08T03:04:03.182Z,99044.49
2023-03-08T03:06:35.526Z,99047.91
2023-03-08T03:09:08.933Z,99051.02
2023-03-08T03:11:40.444Z,99050.55
2023-03-08T03:14:10.049Z,99055.58
2023-03-08T03:16:42.753Z,99056.68
2023-03-08T03:19:13.407Z,99055.40
2023-03-08T03:21:43.591Z,99062.89
2023-03-08T03:24:15.039Z,99064.39
2023-03-08T03:26:51.530Z,99068.93
2023-03-08T03:29:21.496Z,99071.15
2023-03-08T03:31:55.222Z,99071.13
2023-03-08T03:34:25.807Z,99074.48
2023-03-08T03:36:56.599Z,99084.70
2023-03-08T03:39:26.634Z,99090.66
2023-03-08T03:41:57.257Z,99090.94
2023-03-08T03:44:28.632Z,99094.98
2023-03-08T03:46:58.803Z,99098.73
2023-03-08T03:49:30.218Z,99102.45
2023-03-08T03:52:00.281Z,99106.70
2023-03-08T03:54:36.689Z,99109.57
2023-03-08T03:57:07.769Z,99112.52
2023-03-08T03:59:39.380Z,99115.70
2023-03-08T04:02:11.541Z,99122.02
2023-03-08T04:04:49.480Z,99125.45
2023-03-08T04:07:20.579Z,99125.15
2023-03-08T04:09:57.511Z,99125.11
2023-03-08T04:12:28.126Z,99128.47
2023-03-08T04:14:58.199Z,99130.98
2023-03-08T04:17:31.328Z,99132.36
2023-03-08T04:20:01.065Z,99133.81
2023-03-08T04:22:34.424Z,99135.85
2023-03-08T04:25:10.525Z,99137.66
2023-03-08T04:27:51.459Z,99135.90
2023-03-08T04:30:22.790Z,99140.56
2023-03-08T04:32:53.977Z,99142.38
2023-03-08T04:35:25.709Z,99143.14
2023-03-08T04:37:56.654Z,99145.98
2023-03-08T04:40:29.352Z,99148.81
2023-03-08T04:43:01.980Z,99152.88
2023-03-08T04:45:38.940Z,99147.89
2023-03-08T04:48:13.318Z,99146.83
2023-03-08T04:50:43.702Z,99145.91
2023-03-08T04:53:14.737Z,99149.27
2023-03-08T04:55:44.863Z,99149.89
2023-03-08T04:58:15.443Z,99155.36
2023-03-08T05:00:45.153Z,99158.20
2023-03-08T05:03:16.509Z,99162.86
2023-03-08T05:05:50.853Z,99163.36
2023-03-08T05:08:22.266Z,99163.65
2023-03-08T05:10:59.607Z,99167.29
2023-03-08T05:13:33.012Z,99169.64
2023-03-08T05:16:04.165Z,99170.92
2023-03-08T05:18:34.448Z,99175.84
2023-03-08T05:21:07.417Z,99178.67
2023-03-08T05:23:38.060Z,99179.92
2023-03-08T05:26:10.932Z,99187.21
2023-03-08T05:28:41.961Z,99184.69
2023-03-08T05:31:15.132Z,99186.04
2023-03-08T05:33:46.741Z,99191.64
2023-03-08T05:36:18.573Z,99201.55
2023-03-08T05:38:53.284Z,99205.50
2023-03-08T05:41:22.986Z,99209.73
2023-03-08T05:43:54.485Z,99214.19
2023-03-08T05:46:24.433Z,99215.89
2023-03-08T05:48:54.090Z,99220.12
2023-03-08T05:51:24.501Z,99219.60
2023-03-08T05:53:57.421Z,99222.16
2023-03-08T05:56:27.106Z,99225.16
2023-03-08T05:59:05.016Z,99227.46
2023-03-08T06:01:34.741Z,99227.38
2023-03-08T06:04:27.034Z,99232.46
2023-03-08T06:06:56.878Z,99237.69
2023-03-08T06:09:29.694Z,99240.75
2023-03-08T06:11:59.768Z,99248.91
2023-03-08T06:14:29.501Z,99255.30
2023-03-08T06:17:00.651Z,99256.33
2023-03-08T06:19:32.764Z,99259.20
2023-03-08T06:22:02.321Z,99265.46
2023-03-08T06:24:32.419Z,99268.01
2023-03-08T06:27:03.494Z,99270.50
2023-03-08T06:29:34.752Z,99274.63
2023-03-08T06:32:05.799Z,99280.19
2023-03-08T06:34:36.108Z,99284.83
2023-03-08T06:37:05.928Z,99288.13
2023-03-08T06:39:35.860Z,99293.33
2023-03-08T06:42:06.941Z,99292.65
2023-03-08T06:44:39.946Z,99296.67
2023-03-08T06:47:10.532Z,99301.23
2023-03-08T06:49:40.108Z,99304.75
2023-03-08T06:52:11.370Z,99304.98
2023-03-08T06:54:41.003Z,99310.94
2023-03-08T06:57:11.628Z,99312.14
2023-03-08T06:59:41.186Z,99312.90
2023-03-08T07:02:11.660Z,99314.61
2023-03-08T07:04:41.492Z,99320.45
2023-03-08T07:07:11.061Z,99319.73
2023-03-08T07:09:40.842Z,99324.48
2023-03-08T07:12:10.828Z,99327.89
2023-03-08T07:14:40.711Z,99325.98
2023-03-08T07:17:11.377Z,99333.05
2023-03-08T07:19:41.058Z,99328.02
2023-03-08T07:22:12.856Z,99328.48
2023-03-08T07:24:42.381Z,99336.16
2023-03-08T07:27:12.406Z,99337.54
2023-03-08T07:29:42.064Z,99334.81
2023-03-08T07:32:11.834Z,99340.73
2023-03-08T07:34:41.684Z,99344.19
2023-03-08T07:37:13.600Z,99349.88
2023-03-08T07:39:44.706Z,99355.56
2023-03-08T07:42:14.354Z,99357.17
2023-03-08T07:44:46.913Z,99357.80
2023-03-08T07:47:16.520Z,99360.95
2023-03-08T07:49:46.245Z,99364.91
2023-03-08T07:52:15.981Z,99366.07
2023-03-08T07:54:45.704Z,99367.90
2023-03-08T07:57:16.041Z,99370.99
2023-03-08T07:59:45.611Z,99372.29
2023-03-08T08:02:15.872Z,99370.33
2023-03-08T08:04:45.737Z,99368.22
2023-03-08T08:07:17.383Z,99376.46
2023-03-08T08:09:47.499Z,99375.52
2023-03-08T08:12:17.093Z,99380.88
2023-03-08T08:14:46.773Z,99385.26
2023-03-08T08:17:18.571Z,99384.36
2023-03-08T08:19:48.533Z,99388.83
2023-03-08T08:22:18.856Z,99391.92
2023-03-08T08:24:48.443Z,99393.70
2023-03-08T08:27:18.045Z,99395.28
2023-03-08T08:29:50.299Z,99398.23
2023-03-08T08:32:19.895Z,99400.53
2023-03-08T08:34:49.504Z,99398.92
2023-03-08T08:37:19.233Z,99395.83
2023-03-08T08:39:49.796Z,99396.45
2023-03-08T08:42:19.402Z,99399.71
2023-03-08T08:44:48.994Z,99397.13
2023-03-08T08:47:18.568Z,99398.91
2023-03-08T08:49:48.294Z,99393.75
2023-03-08T08:52:18.444Z,99394.45
2023-03-08T08:54:48.025Z,99397.19
2023-03-08T08:57:17.611Z,99393.73
2023-03-08T08:59:47.617Z,99392.91
2023-03-08T09:02:17.460Z,99387.38
2023-03-08T09:04:47.201Z,99389.95
2023-03-08T09:07:16.994Z,99390.28
2023-03-08T09:09:47.054Z,99388.63
2023-03-08T09:12:16.820Z,99387.52
2023-03-08T09:14:47.434Z,99391.21
2023-03-08T09:17:17.060Z,99384.94
2023-03-08T09:19:47.193Z,99384.95
2023-03-08T09:22:17.892Z,99386.41
2023-03-08T09:24:50.458Z,99391.93
2023-03-08T09:27:20.313Z,99396.16
2023-03-08T09:29:50.274Z,99394.60
2023-03-08T09:32:19.950Z,99401.06
2023-03-08T09:34:49.522Z,99399.29
2023-03-08T09:37:19.070Z,99399.04
2023-03-08T09:39:51.965Z,99397.80
2023-03-08T09:42:26.944Z,99397.86
2023-03-08T09:45:08.129Z,99395.63
2023-03-08T09:47:46.465Z,99393.79
2023-03-08T09:50:32.950Z,99399.96
2023-03-08T09:53:11.025Z,99400.38
2023-03-08T09:55:51.356Z,99401.67
2023-03-08T09:58:32.924Z,99400.61
2023-03-08T10:01:16.041Z,99401.48
2023-03-08T10:04:08.658Z,99408.27
2023-03-08T10:06:43.916Z,99408.39
2023-03-08T10:09:26.817Z,99403.09
2023-03-08T10:12:03.775Z,99403.41
2023-03-08T10:14:35.936Z,99400.92
2023-03-08T10:17:13.141Z,99399.71
2023-03-08T10:19:47.831Z,99401.91
2023-03-08T10:22:25.325Z,99400.41
2023-03-08T10:24:58.552Z,99397.09
2023-03-08T10:27:32.242Z,99398.73
2023-03-08T10:30:11.523Z,99392.92
2023-03-08T10:32:46.758Z,99389.84
2023-03-08T10:35:17.845Z,99393.24
2023-03-08T10:37:52.615Z,99398.22
2023-03-08T10:40:23.005Z,99396.77
2023-03-08T10:43:00.365Z,99398.49
2023-03-08T10:45:31.573Z,99403.27
2023-03-08T10:48:02.885Z,99411.14
2023-03-08T10:50:34.927Z,99409.23
2023-03-08T10:53:16.061Z,99412.51
2023-03-08T10:55:50.088Z,99408.66
2023-03-08T10:58:31.435Z,99409.15
2023-03-08T11:01:03.698Z,99411.42
2023-03-08T11:03:34.123Z,99417.14
2023-03-08T11:06:13.552Z,99413.15
2023-03-08T11:08:54.485Z,99413.72
2023-03-08T11:11:24.177Z,99408.55
2023-03-08T11:13:54.848Z,99404.99
2023-03-08T11:16:41.066Z,99402.99
2023-03-08T11:19:26.488Z,99399.98
2023-03-08T11:22:06.180Z,99397.98
2023-03-08T11:24:59.908Z,99400.44
2023-03-08T11:27:43.988Z,99396.59
2023-03-08T11:30:27.669Z,99389.69
2023-03-08T11:33:22.430Z,99389.77
2023-03-08T11:35:59.863Z,99394.98
2023-03-08T11:38:31.498Z,99397.36
2023-03-08T11:41:10.978Z,99398.05
2023-03-08T11:44:04.032Z,99395.40
2023-03-08T11:46:57.639Z,99386.96
2023-03-08T11:49:47.637Z,99382.94
2023-03-08T11:52:29.374Z,99393.23
2023-03-08T11:55:20.007Z,99392.50
2023-03-08T11:57:56.762Z,99386.35
2023-03-08T12:00:30.761Z,99389.42
2023-03-08T12:03:06.355Z,99387.25
2023-03-08T12:05:40.320Z,99386.69
2023-03-08T12:08:15.918Z,99385.25
2023-03-08T12:10:51.353Z,99388.23
2023-03-08T12:13:25.439Z,99388.59
2023-03-08T12:16:00.065Z,99385.96
2023-03-08T12:18:37.926Z,99381.47
2023-03-08T12:21:18.423Z,99383.44
2023-03-08T12:23:57.055Z,99378.52
2023-03-08T12:26:31.832Z,99375.10
2023-03-08T12:29:05.557Z,99373.99
2023-03-08T12:31:40.903Z,99370.63
2023-03-08T12:34:25.125Z,99369.11
2023-03-08T12:36:55.549Z,99370.48
2023-03-08T12:39:28.972Z,99368.78
2023-03-08T12:42:00.822Z,99358.90
2023-03-08T12:44:31.647Z,99360.01
2023-03-08T12:47:17.636Z,99358.94
2023-03-08T12:49:51.118Z,99357.70
2023-03-08T12:52:34.468Z,99358.20
2023-03-08T12:55:11.105Z,99361.20
2023-03-08T12:57:46.948Z,99365.89
2023-03-08T13:00:29.244Z,99360.38
2023-03-08T13:03:04.764Z,99365.36
2023-03-08T13:05:37.050Z,99359.42
2023-03-08T13:08:22.881Z,99353.39
2023-03-08T13:11:06.763Z,99351.73
2023-03-08T13:13:50.438Z,99349.91
2023-03-08T13:16:32.653Z,99349.30
2023-03-08T13:19:18.626Z,99351.10
2023-03-08T13:22:00.620Z,99347.00
2023-03-08T13:24:40.387Z,99346.06
2023-03-08T13:27:32.846Z,99344.31
2023-03-08T13:30:20.504Z,99342.65
2023-03-08T13:32:51.538Z,99338.31
2023-03-08T13:35:21.808Z,99334.54
2023-03-08T13:37:56.296Z,99335.91
2023-03-08T13:40:27.754Z,99332.31
2023-03-08T13:42:58.914Z,99336.33
2023-03-08T13:45:29.028Z,99330.23
2023-03-08T13:48:02.928Z,99332.58
2023-03-08T13:50:35.525Z,99327.61
2023-03-08T13:53:10.442Z,99329.71
2023-03-08T13:55:43.828Z,99325.27
2023-03-08T13:58:25.564Z,99326.44
2023-03-08T14:01:03.955Z,99322.09
2023-03-08T14:03:33.949Z,99323.02
2023-03-08T14:06:04.063Z,99325.05
2023-03-08T14:08:33.697Z,99321.21
2023-03-08T14:11:08.190Z,99320.36
2023-03-08T14:13:40.926Z,99318.50
2023-03-08T14:16:23.953Z,99315.31
2023-03-08T14:18:54.901Z,99316.79
2023-03-08T14:21:26.932Z,99316.05
2023-03-08T14:23:57.932Z,99314.17
2023-03-08T14:26:34.231Z,99312.25
2023-03-08T14:29:16.889Z,99310.36
2023-03-08T14:32:28.188Z,99311.67
2023-03-08T14:35:07.130Z,99307.71
2023-03-08T14:37:36.984Z,99306.11
2023-03-08T14:40:27.663Z,99303.23
2023-03-08T14:42:59.051Z,99304.66
2023-03-08T14:45:33.960Z,99305.85
2023-03-08T14:48:15.772Z,99301.56
2023-03-08T14:50:55.057Z,99296.70
2023-03-08T14:53:31.291Z,99292.55
2023-03-08T14:56:03.033Z,99292.17
2023-03-08T14:58:54.941Z,99289.62
2023-03-08T15:01:29.695Z,99288.42
2023-03-08T15:04:00.083Z,99288.66
2023-03-08T15:06:33.439Z,99287.33
2023-03-08T15:09:07.030Z,99287.68
2023-03-08T15:11:36.848Z,99291.93
2023-03-08T15:14:06.457Z,99295.88
2023-03-08T15:16:36.103Z,99298.08
2023-03-08T15:19:06.008Z,99297.51
2023-03-08T15:21:37.323Z,99293.90
2023-03-08T15:24:10.834Z,99291.77
2023-03-08T15:26:40.377Z,99291.61
2023-03-08T15:29:24.190Z,99289.52
2023-03-08T15:31:54.321Z,99295.02
2023-03-08T15:34:25.668Z,99292.73
2023-03-08T15:36:57.266Z,99296.67
2023-03-08T15:39:27.246Z,99293.58
2023-03-08T15:41:56.862Z,99291.37
2023-03-08T15:44:26.454Z,99287.15
2023-03-08T15:46:56.160Z,99283.45
2023-03-08T15:49:25.780Z,99281.67
2023-03-08T15:51:55.383Z,99280.44
2023-03-08T15:54:28.289Z,99281.36
2023-03-08T15:56:58.889Z,99280.75
2023-03-08T15:59:28.470Z,99277.27
2023-03-08T16:01:58.083Z,99278.90
2023-03-08T16:04:27.773Z,99280.69
2023-03-08T16:06:57.757Z,99282.67
2023-03-08T16:09:27.386Z,99280.55
2023-03-08T16:11:56.957Z,99282.96
2023-03-08T16:14:26.544Z,99284.04
2023-03-08T16:16:56.541Z,99285.76
2023-03-08T16:19:26.413Z,99283.88
2023-03-08T16:21:56.896Z,99286.34
2023-03-08T16:24:27.168Z,99285.04
2023-03-08T16:26:57.188Z,99285.50
2023-03-08T16:29:27.092Z,99287.65
2023-03-08T16:31:58.341Z,99289.46
2023-03-08T16:34:29.517Z,99287.48
2023-03-08T16:36:59.589Z,99286.98
2023-03-08T16:39:29.206Z,99284.95
2023-03-08T16:41:58.825Z,99286.24
2023-03-08T16:44:30.644Z,99282.90
2023-03-08T16:47:00.211Z,99279.86
2023-03-08T16:49:29.870Z,99280.83
2023-03-08T16:51:59.533Z,99278.15
2023-03-08T16:54:29.135Z,99276.73
2023-03-08T16:57:01.115Z,99281.85
2023-03-08T16:59:34.517Z,99280.98
2023-03-08T17:02:04.165Z,99283.63
2023-03-08T17:04:33.805Z,99284.08
2023-03-08T17:07:07.745Z,99283.42
2023-03-08T17:09:38.241Z,99279.08
2023-03-08T17:12:08.857Z,99277.45
2023-03-08T17:14:38.466Z,99278.71
2023-03-08T17:17:09.845Z,99277.56
2023-03-08T17:19:41.018Z,99275.70
2023-03-08T17:22:11.176Z,99271.02
2023-03-08T17:24:40.780Z,99274.42
2023-03-08T17:27:10.343Z,99271.16
2023-03-08T17:29:39.895Z,99269.47
2023-03-08T17:32:09.720Z,99268.45
2023-03-08T17:34:39.353Z,99267.73
2023-03-08T17:37:11.716Z,99268.64
2023-03-08T17:39:41.935Z,99264.88
2023-03-08T17:42:11.608Z,99261.32
2023-03-08T17:44:41.498Z,99264.03
2023-03-08T17:47:13.270Z,99256.97
2023-03-08T17:49:42.841Z,99251.81
2023-03-08T17:52:12.414Z,99248.29
2023-03-08T17:54:42.096Z,99247.40
2023-03-08T17:57:11.684Z,99250.15
2023-03-08T17:59:41.260Z,99244.38
2023-03-08T18:02:11.539Z,99244.28
2023-03-08T18:04:44.431Z,99241.29
2023-03-08T18:07:15.154Z,99235.27
2023-03-08T18:09:47.520Z,99229.89
2023-03-08T18:12:17.499Z,99231.18
2023-03-08T18:14:51.841Z,99231.66
2023-03-08T18:17:22.398Z,99228.64
2023-03-08T18:19:51.956Z,99228.46
2023-03-08T18:22:21.548Z,99223.97
2023-03-08T18:24:51.376Z,99223.40
2023-03-08T18:27:20.971Z,99218.36
2023-03-08T18:29:50.771Z,99215.21
2023-03-08T18:32:20.431Z,99218.45
2023-03-08T18:34:50.201Z,99219.77
2023-03-08T18:37:19.768Z,99221.05
2023-03-08T18:39:54.239Z,99221.42
2023-03-08T18:42:23.924Z,99218.58
2023-03-08T18:44:53.509Z,99217.91
2023-03-08T18:47:23.164Z,99214.40
2023-03-08T18:49:53.055Z,99214.77
2023-03-08T18:52:22.648Z,99211.70
2023-03-08T18:54:52.225Z,99211.23
2023-03-08T18:57:21.898Z,99208.66
2023-03-08T18:59:51.720Z,99208.20
2023-03-08T19:02:26.773Z,99212.48
2023-03-08T19:04:58.024Z,99212.86
2023-03-08T19:07:27.667Z,99212.24
2023-03-08T19:09:59.326Z,99214.98
2023-03-08T19:12:29.704Z,99218.88
2023-03-08T19:14:59.312Z,99223.54
2023-03-08T19:17:28.941Z,99221.67
2023-03-08T19:19:58.685Z,99225.17
2023-03-08T19:22:28.278Z,99220.29
2023-03-08T19:24:58.141Z,99220.34
2023-03-08T19:27:28.649Z,99218.66
2023-03-08T19:29:58.395Z,99219.19
2023-03-08T19:32:28.019Z,99220.09
2023-03-08T19:34:57.628Z,99216.98
2023-03-08T19:37:27.298Z,99214.43
2023-03-08T19:39:57.160Z,99216.33
2023-03-08T19:42:26.832Z,99215.21
2023-03-08T19:44:56.453Z,99215.91
2023-03-08T19:47:26.063Z,99217.69
2023-03-08T19:49:55.656Z,99215.98
2023-03-08T19:52:25.289Z,99218.63
2023-03-08T19:54:55.099Z,99213.17
2023-03-08T19:57:24.650Z,99217.70
2023-03-08T19:59:57.318Z,99215.92
2023-03-08T20:02:27.925Z,99217.08
2023-03-08T20:04:57.693Z,99218.80
2023-03-08T20:07:27.366Z,99214.41
2023-03-08T20:10:04.602Z,99210.52
2023-03-08T20:12:40.029Z,99210.85
2023-03-08T20:15:10.945Z,99210.93
2023-03-08T20:17:40.574Z,99214.03
2023-03-08T20:20:13.940Z,99213.55
2023-03-08T20:22:43.614Z,99213.70
2023-03-08T20:25:13.492Z,99214.48
2023-03-08T20:27:43.670Z,99211.23
2023-03-08T20:30:14.687Z,99206.88
2023-03-08T20:32:44.362Z,99207.60
2023-03-08T20:35:14.789Z,99203.64
2023-03-08T20:37:44.452Z,99209.94
2023-03-08T20:40:16.112Z,99209.09
2023-03-08T20:42:45.800Z,99209.63
2023-03-08T20:45:15.759Z,99208.27
2023-03-08T20:47:46.081Z,99205.23
2023-03-08T20:50:15.757Z,99210.52
2023-03-08T20:52:46.859Z,99209.91
2023-03-08T20:55:18.311Z,99210.52
2023-03-08T20:57:48.019Z,99208.56
2023-03-08T21:00:18.043Z,99207.59
2023-03-08T21:02:47.702Z,99201.91
2023-03-08T21:05:17.606Z,99200.75
2023-03-08T21:07:47.197Z,99196.16
2023-03-08T21:10:17.277Z,99201.23
2023-03-08T21:12:46.890Z,99201.39
2023-03-08T21:15:16.739Z,99204.54
2023-03-08T21:17:46.364Z,99199.02
2023-03-08T21:20:16.299Z,99200.48
2023-03-08T21:22:45.922Z,99204.01
2023-03-08T21:25:15.715Z,99202.89
2023-03-08T21:27:45.279Z,99203.92
2023-03-08T21:30:15.354Z,99203.80
2023-03-08T21:32:44.963Z,99205.01
2023-03-08T21:35:14.732Z,99201.73
2023-03-08T21:37:44.405Z,99203.15
2023-03-08T21:40:14.741Z,99199.26
2023-03-08T21:42:44.300Z,99196.07
2023-03-08T21:45:14.297Z,99187.48
2023-03-08T21:47:44.028Z,99182.88
2023-03-08T21:50:14.056Z,99178.31
2023-03-08T21:52:44.196Z,99176.05
2023-03-08T21:55:13.801Z,99180.15
2023-03-08T21:57:43.687Z,99177.65
2023-03-08T22:00:16.647Z,99179.74
2023-03-08T22:02:54.160Z,99176.27
2023-03-08T22:05:24.437Z,99173.89
2023-03-08T22:07:54.015Z,99169.98
2023-03-08T22:10:23.666Z,99165.57
2023-03-08T22:12:53.231Z,99160.33
2023-03-08T22:15:22.800Z,99161.02
2023-03-08T22:17:53.825Z,99166.70
2023-03-08T22:20:23.434Z,99163.23
2023-03-08T22:22:53.033Z,99169.11
2023-03-08T22:25:22.637Z,99171.31
2023-03-08T22:27:52.249Z,99171.72
2023-03-08T22:30:22.270Z,99177.45
2023-03-08T22:32:51.811Z,99174.67
2023-03-08T22:35:21.797Z,99178.77
2023-03-08T22:37:51.405Z,99175.70
2023-03-08T22:40:21.125Z,99176.78
2023-03-08T22:42:50.714Z,99178.57
2023-03-08T22:45:20.545Z,99177.57
2023-03-08T22:47:52.096Z,99177.08
2023-03-08T22:50:21.916Z,99170.38
2023-03-08T22:52:51.519Z,99170.36
2023-03-08T22:55:21.445Z,99167.77
2023-03-08T22:57:51.032Z,99167.78
2023-03-08T23:00:20.955Z,99171.91
2023-03-08T23:02:54.918Z,99175.96
2023-03-08T23:05:25.119Z,99177.55
2023-03-08T23:07:54.682Z,99177.67
2023-03-08T23:10:24.236Z,99174.92
2023-03-08T23:12:53.804Z,99173.95
2023-03-08T23:15:23.303Z,99173.61
2023-03-08T23:17:52.907Z,99172.02
2023-03-08T23:20:23.191Z,99168.75
2023-03-08T23:22:52.771Z,99166.26
2023-03-08T23:25:22.345Z,99162.39
2023-03-08T23:27:51.926Z,99162.22
2023-03-08T23:30:21.937Z,99161.17
2023-03-08T23:32:51.583Z,99157.07
2023-03-08T23:35:21.433Z,99157.88
2023-03-08T23:37:51.009Z,99155.42
2023-03-08T23:40:20.832Z,99156.66
2023-03-08T23:42:51.045Z,99156.13
2023-03-08T23:45:21.120Z,99158.36
2023-03-08T23:47:51.279Z,99161.33
2023-03-08T23:50:21.090Z,99158.95
2023-03-08T23:52:50.668Z,99157.54
2023-03-08T23:55:20.535Z,99157.77
2023-03-08T23:57:51.167Z,99159.94
